Observation data for Floydada on 07/11/2018      Previous  Date       Current Mesonet Observations  Soil Data  Daily Summary Page  Observations in Plain Language
KFLS 110500Z 16005KT 23/16 A3015 RMK A01 T02280160  RH  067%=      5-min Rain = 0
KFLS 110505Z 16005KT 23/16 A3015 RMK A01 T02280159  RH  067%=      5-min Rain = 0
KFLS 110510Z 16005KT 23/16 A3015 RMK A01 T02260159  RH  067%=      5-min Rain = 0
KFLS 110515Z 16005KT 22/16 A3015 RMK A01 T02240159  RH  068%=      5-min Rain = 0
KFLS 110520Z 16004KT 22/16 A3015 RMK A01 T02240159  RH  068%=      5-min Rain = 0
KFLS 110525Z 16005KT 23/16 A3015 RMK A01 T02250159  RH  068%=      5-min Rain = 0
KFLS 110530Z 16005KT 22/16 A3015 RMK A01 T02240159  RH  068%=      5-min Rain = 0
KFLS 110535Z 16005KT 22/16 A3015 RMK A01 T02220159  RH  069%=      5-min Rain = 0
KFLS 110540Z 16005KT 22/16 A3015 RMK A01 T02220159  RH  069%=      5-min Rain = 0
KFLS 110545Z 15005KT 22/16 A3015 RMK A01 T02200158  RH  069%=      5-min Rain = 0
KFLS 110550Z 14005KT 22/16 A3015 RMK A01 T02200159  RH  070%=      5-min Rain = 0
KFLS 110555Z 14005KT 22/16 A3015 RMK A01 T02210158  RH  069%=      5-min Rain = 0
KFLS 110600Z 14005KT 22/16 A3015 RMK A01 T02240160  RH  069%=      5-min Rain = 0
KFLS 110605Z 14005KT 22/16 A3015 RMK A01 T02240159  RH  068%=      5-min Rain = 0
KFLS 110610Z 14005KT 22/16 A3015 RMK A01 T02240160  RH  069%=      5-min Rain = 0
KFLS 110615Z 14006KT 23/16 A3015 RMK A01 T02260161  RH  068%=      5-min Rain = 0
KFLS 110620Z 15006KT 22/16 A3015 RMK A01 T02240161  RH  069%=      5-min Rain = 0
KFLS 110625Z 15007KT 23/16 A3015 RMK A01 T02250162  RH  069%=      5-min Rain = 0
KFLS 110630Z 15006KT 23/16 A3015 RMK A01 T02270162  RH  068%=      5-min Rain = 0
KFLS 110635Z 15006KT 23/16 A3015 RMK A01 T02290161  RH  067%=      5-min Rain = 0
KFLS 110640Z 16006KT 23/16 A3015 RMK A01 T02310160  RH  066%=      5-min Rain = 0
KFLS 110645Z 16006KT 23/16 A3015 RMK A01 T02320160  RH  065%=      5-min Rain = 0
KFLS 110650Z 16007KT 23/16 A3015 RMK A01 T02310161  RH  066%=      5-min Rain = 0
KFLS 110655Z 16007KT 23/16 A3015 RMK A01 T02300161  RH  067%=      5-min Rain = 0
KFLS 110700Z 16007KT 23/16 A3015 RMK A01 T02300161  RH  067%=      5-min Rain = 0
KFLS 110705Z 16006KT 23/16 A3015 RMK A01 T02300162  RH  067%=      5-min Rain = 0
KFLS 110710Z 16007KT 23/16 A3015 RMK A01 T02300161  RH  067%=      5-min Rain = 0
KFLS 110715Z 16007KT 23/16 A3015 RMK A01 T02290161  RH  067%=      5-min Rain = 0
KFLS 110720Z 16007KT 23/16 A3015 RMK A01 T02270161  RH  068%=      5-min Rain = 0
KFLS 110725Z 16008KT 23/16 A3015 RMK A01 T02260160  RH  068%=      5-min Rain = 0
KFLS 110730Z 16007KT 23/16 A3015 RMK A01 T02260160  RH  068%=      5-min Rain = 0
KFLS 110735Z 16008KT 23/16 A3015 RMK A01 T02250159  RH  068%=      5-min Rain = 0
KFLS 110740Z 17008KT 23/16 A3014 RMK A01 T02260159  RH  067%=      5-min Rain = 0
KFLS 110745Z 17008KT 23/16 A3014 RMK A01 T02260159  RH  067%=      5-min Rain = 0
KFLS 110750Z 17008KT 22/16 A3014 RMK A01 T02240159  RH  068%=      5-min Rain = 0
KFLS 110755Z 17007KT 23/16 A3014 RMK A01 T02250160  RH  068%=      5-min Rain = 0
KFLS 110800Z 17008KT 23/16 A3014 RMK A01 T02250161  RH  068%=      5-min Rain = 0
KFLS 110805Z 17008KT 23/16 A3014 RMK A01 T02250161  RH  069%=      5-min Rain = 0
KFLS 110810Z 17007KT 23/16 A3014 RMK A01 T02250162  RH  069%=      5-min Rain = 0
KFLS 110815Z 16007KT 22/16 A3014 RMK A01 T02220162  RH  070%=      5-min Rain = 0
KFLS 110820Z 16007KT 22/16 A3014 RMK A01 T02190161  RH  071%=      5-min Rain = 0
KFLS 110825Z 16006KT 22/16 A3014 RMK A01 T02150161  RH  073%=      5-min Rain = 0
KFLS 110830Z 16006KT 21/16 A3015 RMK A01 T02130161  RH  074%=      5-min Rain = 0
KFLS 110835Z 16006KT 21/16 A3015 RMK A01 T02100161  RH  075%=      5-min Rain = 0
KFLS 110840Z 16005KT 21/16 A3015 RMK A01 T02070160  RH  076%=      5-min Rain = 0
KFLS 110845Z 16005KT 21/16 A3014 RMK A01 T02050160  RH  077%=      5-min Rain = 0
KFLS 110850Z 17006KT 20/16 A3014 RMK A01 T02030160  RH  078%=      5-min Rain = 0
KFLS 110855Z 17006KT 20/16 A3014 RMK A01 T02010161  RH  079%=      5-min Rain = 0
KFLS 110900Z 17006KT 20/16 A3014 RMK A01 T02030162  RH  079%=      5-min Rain = 0
KFLS 110905Z 17006KT 21/16 A3014 RMK A01 T02060164  RH  079%=      5-min Rain = 0
KFLS 110910Z 18006KT 21/17 A3014 RMK A01 T02080165  RH  078%=      5-min Rain = 0
KFLS 110915Z 18006KT 21/17 A3014 RMK A01 T02080165  RH  078%=      5-min Rain = 0
KFLS 110920Z 18006KT 21/17 A3014 RMK A01 T02060165  RH  079%=      5-min Rain = 0
KFLS 110925Z 18007KT 21/17 A3014 RMK A01 T02060165  RH  079%=      5-min Rain = 0
KFLS 110930Z 19006KT 21/17 A3014 RMK A01 T02050165  RH  080%=      5-min Rain = 0
KFLS 110935Z 19006KT 20/16 A3014 RMK A01 T02030164  RH  080%=      5-min Rain = 0
KFLS 110940Z 19005KT 20/16 A3014 RMK A01 T02000164  RH  081%=      5-min Rain = 0
KFLS 110945Z 18006KT 20/16 A3014 RMK A01 T01990164  RH  082%=      5-min Rain = 0
KFLS 110950Z 18005KT 20/17 A3014 RMK A01 T02010165  RH  082%=      5-min Rain = 0
KFLS 110955Z 18006KT 20/17 A3014 RMK A01 T02020165  RH  081%=      5-min Rain = 0
KFLS 111000Z 18006KT 20/17 A3014 RMK A01 T02030165  RH  081%=      5-min Rain = 0
KFLS 111005Z 18007KT 20/17 A3013 RMK A01 T02020165  RH  082%=      5-min Rain = 0
KFLS 111010Z 18007KT 20/17 A3013 RMK A01 T02020166  RH  082%=      5-min Rain = 0
KFLS 111015Z 18007KT 20/17 A3013 RMK A01 T02010166  RH  082%=      5-min Rain = 0
KFLS 111020Z 18007KT 20/17 A3013 RMK A01 T02000166  RH  083%=      5-min Rain = 0
KFLS 111025Z 18007KT 20/17 A3013 RMK A01 T02000167  RH  083%=      5-min Rain = 0
KFLS 111030Z 18006KT 20/17 A3013 RMK A01 T01990167  RH  083%=      5-min Rain = 0
KFLS 111035Z 18007KT 20/17 A3013 RMK A01 T02000167  RH  084%=      5-min Rain = 0
KFLS 111040Z 18007KT 20/17 A3013 RMK A01 T02000168  RH  083%=      5-min Rain = 0
KFLS 111045Z 18007KT 20/17 A3013 RMK A01 T02010168  RH  083%=      5-min Rain = 0
KFLS 111050Z 19007KT 20/17 A3013 RMK A01 T02040169  RH  082%=      5-min Rain = 0
KFLS 111055Z 19007KT 20/17 A3013 RMK A01 T02040170  RH  083%=      5-min Rain = 0
KFLS 111100Z 20007KT 21/17 A3013 RMK A01 T02060170  RH  082%=      5-min Rain = 0
KFLS 111105Z 19007KT 21/17 A3013 RMK A01 T02060170  RH  082%=      5-min Rain = 0
KFLS 111110Z 19007KT 21/17 A3013 RMK A01 T02050170  RH  082%=      5-min Rain = 0
KFLS 111115Z 20007KT 21/17 A3013 RMK A01 T02050170  RH  082%=      5-min Rain = 0
KFLS 111120Z 20006KT 20/17 A3013 RMK A01 T02040170  RH  083%=      5-min Rain = 0
KFLS 111125Z 20005KT 20/17 A3013 RMK A01 T02020169  RH  083%=      5-min Rain = 0
KFLS 111130Z 20006KT 20/17 A3013 RMK A01 T02010168  RH  084%=      5-min Rain = 0
KFLS 111135Z 20006KT 20/17 A3014 RMK A01 T02000169  RH  084%=      5-min Rain = 0
KFLS 111140Z 21007KT 20/17 A3014 RMK A01 T02030169  RH  083%=      5-min Rain = 0
KFLS 111145Z 21007KT 21/17 A3014 RMK A01 T02070169  RH  081%=      5-min Rain = 0
KFLS 111150Z 21007KT 21/17 A3014 RMK A01 T02070169  RH  081%=      5-min Rain = 0
KFLS 111155Z 20007KT 21/17 A3014 RMK A01 T02050168  RH  081%=      5-min Rain = 0
KFLS 111200Z 20006KT 20/17 A3014 RMK A01 T02040167  RH  081%=      5-min Rain = 0
KFLS 111205Z 21006KT 21/17 A3014 RMK A01 T02050166  RH  080%=      5-min Rain = 0
KFLS 111210Z 20006KT 21/16 A3014 RMK A01 T02070164  RH  078%=      5-min Rain = 0
KFLS 111215Z 20006KT 21/16 A3015 RMK A01 T02070164  RH  078%=      5-min Rain = 0
KFLS 111220Z 20006KT 21/16 A3015 RMK A01 T02080164  RH  077%=      5-min Rain = 0
KFLS 111225Z 19006KT 21/16 A3015 RMK A01 T02100163  RH  076%=      5-min Rain = 0
KFLS 111230Z 20006KT 21/16 A3015 RMK A01 T02120161  RH  074%=      5-min Rain = 0
KFLS 111235Z 20006KT 21/16 A3015 RMK A01 T02140160  RH  073%=      5-min Rain = 0
KFLS 111240Z 20006KT 22/16 A3015 RMK A01 T02160158  RH  071%=      5-min Rain = 0
KFLS 111245Z 20007KT 22/16 A3015 RMK A01 T02200157  RH  069%=      5-min Rain = 0
KFLS 111250Z 20007KT 22/16 A3015 RMK A01 T02240156  RH  067%=      5-min Rain = 0
KFLS 111255Z 20008KT 23/16 A3015 RMK A01 T02260155  RH  066%=      5-min Rain = 0
KFLS 111300Z 20008KT 23/16 A3015 RMK A01 T02310155  RH  064%=      5-min Rain = 0
KFLS 111305Z 20009G14KT 24/15 A3015 RMK A01 T02360154  RH  061%=      5-min Rain = 0
KFLS 111310Z 20009KT 24/15 A3015 RMK A01 T02390153  RH  060%=      5-min Rain = 0
KFLS 111315Z 20009KT 24/15 A3015 RMK A01 T02430154  RH  058%=      5-min Rain = 0
KFLS 111320Z 19012KT 25/15 A3015 RMK A01 T02460152  RH  057%=      5-min Rain = 0
KFLS 111325Z 20011G16KT 24/15 A3015 RMK A01 T02440152  RH  058%=      5-min Rain = 0
KFLS 111330Z 20010G15KT 25/15 A3015 RMK A01 T02450154  RH  058%=      5-min Rain = 0
KFLS 111335Z 20014KT 25/15 A3015 RMK A01 T02490154  RH  057%=      5-min Rain = 0
KFLS 111340Z 20013G20KT 25/16 A3015 RMK A01 T02530156  RH  056%=      5-min Rain = 0
KFLS 111345Z 20014KT 25/16 A3015 RMK A01 T02540156  RH  056%=      5-min Rain = 0
KFLS 111350Z 20013KT 26/16 A3016 RMK A01 T02550157  RH  056%=      5-min Rain = 0
KFLS 111355Z 20013G18KT 26/16 A3016 RMK A01 T02590158  RH  055%=      5-min Rain = 0
KFLS 111400Z 20013G19KT 26/16 A3016 RMK A01 T02620158  RH  054%=      5-min Rain = 0
KFLS 111405Z 20012G17KT 27/16 A3016 RMK A01 T02680159  RH  053%=      5-min Rain = 0
KFLS 111410Z 21013KT 27/16 A3016 RMK A01 T02690158  RH  052%=      5-min Rain = 0
KFLS 111415Z 20014KT 27/16 A3016 RMK A01 T02730158  RH  051%=      5-min Rain = 0
KFLS 111420Z 20015G21KT 27/16 A3016 RMK A01 T02710157  RH  051%=      5-min Rain = 0
KFLS 111425Z 21013G18KT 27/16 A3016 RMK A01 T02730157  RH  050%=      5-min Rain = 0
KFLS 111430Z 21014KT 28/16 A3016 RMK A01 T02760158  RH  050%=      5-min Rain = 0
KFLS 111435Z 20013KT 28/16 A3016 RMK A01 T02770158  RH  050%=      5-min Rain = 0
KFLS 111440Z 20014KT 27/16 A3016 RMK A01 T02740156  RH  050%=      5-min Rain = 0
KFLS 111445Z 21013KT 27/16 A3016 RMK A01 T02730158  RH  051%=      5-min Rain = 0
KFLS 111450Z 20013G18KT 28/16 A3016 RMK A01 T02750157  RH  050%=      5-min Rain = 0
KFLS 111455Z 21014KT 27/16 A3016 RMK A01 T02710156  RH  051%=      5-min Rain = 0
KFLS 111500Z 20013KT 27/16 A3016 RMK A01 T02710157  RH  051%=      5-min Rain = 0
KFLS 111505Z 21014KT 27/16 A3016 RMK A01 T02690157  RH  051%=      5-min Rain = 0
KFLS 111510Z 20012KT 27/16 A3017 RMK A01 T02670158  RH  052%=      5-min Rain = 0
KFLS 111515Z 20011KT 27/16 A3016 RMK A01 T02690158  RH  052%=      5-min Rain = 0
KFLS 111520Z 20011G16KT 28/16 A3016 RMK A01 T02750160  RH  051%=      5-min Rain = 0
KFLS 111525Z 20012KT 28/16 A3016 RMK A01 T02770160  RH  050%=      5-min Rain = 0
KFLS 111530Z 20011KT 28/16 A3016 RMK A01 T02810161  RH  049%=      5-min Rain = 0
KFLS 111535Z 20011G16KT 29/16 A3016 RMK A01 T02870161  RH  048%=      5-min Rain = 0
KFLS 111540Z 20011KT 29/16 A3016 RMK A01 T02870160  RH  047%=      5-min Rain = 0
KFLS 111545Z 21012KT 29/16 A3016 RMK A01 T02850160  RH  048%=      5-min Rain = 0
KFLS 111550Z 19012KT 29/16 A3016 RMK A01 T02870161  RH  047%=      5-min Rain = 0
KFLS 111555Z 20012KT 29/16 A3016 RMK A01 T02860160  RH  048%=      5-min Rain = 0
KFLS 111600Z 19010KT 29/16 A3016 RMK A01 T02860162  RH  048%=      5-min Rain = 0
KFLS 111605Z 19012KT 29/16 A3016 RMK A01 T02940159  RH  045%=      5-min Rain = 0
KFLS 111610Z 20012G17KT 29/16 A3016 RMK A01 T02890159  RH  046%=      5-min Rain = 0
KFLS 111615Z 20013KT 29/16 A3016 RMK A01 T02890157  RH  046%=      5-min Rain = 0
KFLS 111620Z 21012G17KT 29/16 A3016 RMK A01 T02910157  RH  045%=      5-min Rain = 0
KFLS 111625Z 21012KT 31/16 A3016 RMK A01 T03050158  RH  042%=      5-min Rain = 0
KFLS 111630Z 20011KT 30/15 A3016 RMK A01 T02950154  RH  043%=      5-min Rain = 0
KFLS 111635Z 22011KT 30/16 A3016 RMK A01 T02950158  RH  045%=      5-min Rain = 0
KFLS 111640Z 20011KT 30/16 A3016 RMK A01 T03040159  RH  042%=      5-min Rain = 0
KFLS 111645Z 18009KT 31/16 A3016 RMK A01 T03070156  RH  041%=      5-min Rain = 0
KFLS 111650Z 19011G16KT 30/15 A3015 RMK A01 T03000149  RH  041%=      5-min Rain = 0
KFLS 111655Z 19009G14KT 29/15 A3015 RMK A01 T02930148  RH  042%=      5-min Rain = 0
KFLS 111700Z 19008G14KT 31/15 A3015 RMK A01 T03050147  RH  039%=      5-min Rain = 0
KFLS 111705Z 18011G17KT 31/14 A3015 RMK A01 T03090140  RH  036%=      5-min Rain = 0
KFLS 111710Z 17012G18KT 32/14 A3015 RMK A01 T03170137  RH  034%=      5-min Rain = 0
KFLS 111715Z 15010KT 31/15 A3015 RMK A01 T03100145  RH  038%=      5-min Rain = 0
KFLS 111720Z 16010G17KT 31/15 A3015 RMK A01 T03110148  RH  038%=      5-min Rain = 0
KFLS 111725Z 16011G16KT 31/14 A3015 RMK A01 T03120143  RH  036%=      5-min Rain = 0
KFLS 111730Z 16015G21KT 32/13 A3015 RMK A01 T03210132  RH  032%=      5-min Rain = 0
KFLS 111735Z 18013G20KT 32/13 A3015 RMK A01 T03200133  RH  033%=      5-min Rain = 0
KFLS 111740Z 18015G20KT 32/13 A3015 RMK A01 T03190134  RH  033%=      5-min Rain = 0
KFLS 111745Z 18013G19KT 32/14 A3014 RMK A01 T03180136  RH  034%=      5-min Rain = 0
KFLS 111750Z 18014G20KT 32/13 A3014 RMK A01 T03200134  RH  033%=      5-min Rain = 0
KFLS 111755Z 19013G19KT 33/13 A3014 RMK A01 T03250128  RH  031%=      5-min Rain = 0
KFLS 111800Z 19016G21KT 33/13 A3013 RMK A01 T03250132  RH  032%=      5-min Rain = 0
KFLS 111805Z 19013G19KT 32/14 A3013 RMK A01 T03230137  RH  033%=      5-min Rain = 0
KFLS 111810Z 16015G25KT 34/13 A3013 RMK A01 T03370131  RH  029%=      5-min Rain = 0
KFLS 111815Z 18015G22KT 32/13 A3013 RMK A01 T03230127  RH  031%=      5-min Rain = 0
KFLS 111820Z 19015G22KT 32/13 A3013 RMK A01 T03150128  RH  033%=      5-min Rain = 0
KFLS 111825Z 17013G22KT 31/13 A3013 RMK A01 T03090128  RH  034%=      5-min Rain = 0
KFLS 111830Z 17014G19KT 31/13 A3013 RMK A01 T03130131  RH  034%=      5-min Rain = 0
KFLS 111835Z 17014G20KT 32/13 A3013 RMK A01 T03210133  RH  033%=      5-min Rain = 0
KFLS 111840Z 18014KT 32/13 A3012 RMK A01 T03180132  RH  033%=      5-min Rain = 0
KFLS 111845Z 18016G21KT 32/13 A3012 RMK A01 T03240129  RH  031%=      5-min Rain = 0
KFLS 111850Z 16015G21KT 32/13 A3012 RMK A01 T03220127  RH  031%=      5-min Rain = 0
KFLS 111855Z 19014G20KT 32/13 A3012 RMK A01 T03220126  RH  031%=      5-min Rain = 0
KFLS 111900Z 18016G25KT 32/13 A3012 RMK A01 T03230126  RH  031%=      5-min Rain = 0
KFLS 111905Z 18012G19KT 33/13 A3012 RMK A01 T03250126  RH  030%=      5-min Rain = 0
KFLS 111910Z 17012G18KT 33/13 A3011 RMK A01 T03270127  RH  030%=      5-min Rain = 0
KFLS 111915Z 19013G20KT 32/13 A3011 RMK A01 T03220127  RH  031%=      5-min Rain = 0
KFLS 111920Z 19014G20KT 32/13 A3011 RMK A01 T03240128  RH  031%=      5-min Rain = 0
KFLS 111925Z 19012G19KT 33/13 A3011 RMK A01 T03280132  RH  031%=      5-min Rain = 0
KFLS 111930Z 17015G20KT 33/14 A301 RMK A01 T03330136  RH  031%=      5-min Rain = 0
KFLS 111935Z 17015G21KT 34/14 A301 RMK A01 T03350136  RH  031%=      5-min Rain = 0
KFLS 111940Z 17016G24KT 34/13 A301 RMK A01 T03370132  RH  030%=      5-min Rain = 0
KFLS 111945Z 16014G19KT 34/13 A301 RMK A01 T03360132  RH  030%=      5-min Rain = 0
KFLS 111950Z 16015G20KT 32/13 A301 RMK A01 T03200133  RH  033%=      5-min Rain = 0
KFLS 111955Z 16015G21KT 33/14 A301 RMK A01 T03330137  RH  031%=      5-min Rain = 0
KFLS 112000Z 18014KT 33/13 A3009 RMK A01 T03270132  RH  031%=      5-min Rain = 0
KFLS 112005Z 19016G21KT 33/13 A3009 RMK A01 T03300130  RH  030%=      5-min Rain = 0
KFLS 112010Z 19015G22KT 34/13 A3009 RMK A01 T03390126  RH  028%=      5-min Rain = 0
KFLS 112015Z 18013G19KT 34/12 A3009 RMK A01 T03370124  RH  028%=      5-min Rain = 0
KFLS 112020Z 18016G21KT 35/12 A3009 RMK A01 T03450122  RH  026%=      5-min Rain = 0
KFLS 112025Z 17013G18KT 34/12 A3008 RMK A01 T03350121  RH  028%=      5-min Rain = 0
KFLS 112030Z 16012G20KT 33/13 A3008 RMK A01 T03320131  RH  030%=      5-min Rain = 0
KFLS 112035Z 17014G21KT 34/12 A3008 RMK A01 T03440124  RH  027%=      5-min Rain = 0
KFLS 112040Z 16015G20KT 34/12 A3008 RMK A01 T03400124  RH  027%=      5-min Rain = 0
KFLS 112045Z 17013G18KT 34/13 A3008 RMK A01 T03390125  RH  028%=      5-min Rain = 0
KFLS 112050Z 18012G19KT 33/12 A3008 RMK A01 T03300123  RH  029%=      5-min Rain = 0
KFLS 112055Z 18014G19KT 34/12 A3007 RMK A01 T03400123  RH  027%=      5-min Rain = 0
KFLS 112100Z 18014G20KT 32/12 A3007 RMK A01 T03230121  RH  030%=      5-min Rain = 0
KFLS 112105Z 16014G21KT 33/12 A3007 RMK A01 T03290123  RH  029%=      5-min Rain = 0
KFLS 112110Z 18016G21KT 34/12 A3006 RMK A01 T03410122  RH  027%=      5-min Rain = 0
KFLS 112115Z 18015G22KT 34/12 A3006 RMK A01 T03430124  RH  027%=      5-min Rain = 0
KFLS 112120Z 15015G21KT 34/12 A3006 RMK A01 T03410122  RH  027%=      5-min Rain = 0
KFLS 112125Z 16011G19KT 34/12 A3005 RMK A01 T03370122  RH  028%=      5-min Rain = 0
KFLS 112130Z 17014G19KT 34/12 A3005 RMK A01 T03420123  RH  027%=      5-min Rain = 0
KFLS 112135Z 16011G17KT 34/12 A3005 RMK A01 T03410122  RH  027%=      5-min Rain = 0
KFLS 112140Z 16014G20KT 34/12 A3005 RMK A01 T03430121  RH  027%=      5-min Rain = 0
KFLS 112145Z 17012G18KT 34/12 A3005 RMK A01 T03440121  RH  026%=      5-min Rain = 0
KFLS 112150Z 18012G17KT 35/12 A3004 RMK A01 T03470117  RH  025%=      5-min Rain = 0
KFLS 112155Z 16014G23KT 35/12 A3004 RMK A01 T03480120  RH  026%=      5-min Rain = 0
KFLS 112200Z 15015G22KT 34/12 A3004 RMK A01 T03420123  RH  027%=      5-min Rain = 0
KFLS 112205Z 13013G22KT 35/12 A3004 RMK A01 T03450123  RH  027%=      5-min Rain = 0
KFLS 112210Z 15016G22KT 35/12 A3004 RMK A01 T03450124  RH  027%=      5-min Rain = 0
KFLS 112215Z 15015KT 35/12 A3004 RMK A01 T03450124  RH  027%=      5-min Rain = 0
KFLS 112220Z 16014G20KT 34/12 A3004 RMK A01 T03410123  RH  027%=      5-min Rain = 0
KFLS 112225Z 17015G20KT 34/12 A3004 RMK A01 T03350123  RH  028%=      5-min Rain = 0
KFLS 112230Z 17015G21KT 34/13 A3004 RMK A01 T03370125  RH  028%=      5-min Rain = 0
KFLS 112235Z 16014KT 34/12 A3004 RMK A01 T03410123  RH  027%=      5-min Rain = 0
KFLS 112240Z 17013KT 34/12 A3004 RMK A01 T03360123  RH  028%=      5-min Rain = 0
KFLS 112245Z 18014G19KT 33/12 A3004 RMK A01 T03290121  RH  029%=      5-min Rain = 0
KFLS 112250Z 18012KT 32/12 A3004 RMK A01 T03220120  RH  030%=      5-min Rain = 0
KFLS 112255Z 18014KT 32/12 A3004 RMK A01 T03210121  RH  030%=      5-min Rain = 0
KFLS 112300Z 18012KT 32/12 A3004 RMK A01 T03220123  RH  030%=      5-min Rain = 0
KFLS 112305Z 18013KT 32/12 A3004 RMK A01 T03240120  RH  029%=      5-min Rain = 0
KFLS 112310Z 18012G17KT 34/12 A3004 RMK A01 T03370121  RH  027%=      5-min Rain = 0
KFLS 112315Z 18013KT 34/12 A3004 RMK A01 T03400120  RH  027%=      5-min Rain = 0
KFLS 112320Z 18012G17KT 34/12 A3003 RMK A01 T03370121  RH  027%=      5-min Rain = 0
KFLS 112325Z 16012KT 34/12 A3003 RMK A01 T03370121  RH  027%=      5-min Rain = 0
KFLS 112330Z 16011KT 34/12 A3003 RMK A01 T03350118  RH  027%=      5-min Rain = 0
KFLS 112335Z 16013G19KT 34/12 A3003 RMK A01 T03380117  RH  027%=      5-min Rain = 0
KFLS 112340Z 16012G17KT 34/12 A3003 RMK A01 T03380116  RH  026%=      5-min Rain = 0
KFLS 112345Z 15015G21KT 33/11 A3003 RMK A01 T03310113  RH  027%=      5-min Rain = 0
KFLS 112350Z 14014KT 33/11 A3003 RMK A01 T03290111  RH  027%=      5-min Rain = 0
KFLS 112355Z 14015KT 33/11 A3003 RMK A01 T03310112  RH  027%=      5-min Rain = 0
KFLS 120000Z 16015G21KT 33/12 A3003 RMK A01 T03310115  RH  027%=      5-min Rain = 0
KFLS 120005Z 17017KT 33/11 A3003 RMK A01 T03290111  RH  027%=      5-min Rain = 0
KFLS 120010Z 16014KT 33/11 A3003 RMK A01 T03280110  RH  027%=      5-min Rain = 0
KFLS 120015Z 15013KT 33/11 A3003 RMK A01 T03280110  RH  027%=      5-min Rain = 0
KFLS 120020Z 17013KT 33/11 A3003 RMK A01 T03270114  RH  028%=      5-min Rain = 0
KFLS 120025Z 16013KT 33/12 A3003 RMK A01 T03260115  RH  028%=      5-min Rain = 0
KFLS 120030Z 16012G18KT 32/12 A3003 RMK A01 T03240118  RH  029%=      5-min Rain = 0
KFLS 120035Z 16012G18KT 33/12 A3004 RMK A01 T03250120  RH  029%=      5-min Rain = 0
KFLS 120040Z 16013KT 32/12 A3004 RMK A01 T03240119  RH  029%=      5-min Rain = 0
KFLS 120045Z 16012KT 32/12 A3004 RMK A01 T03220119  RH  030%=      5-min Rain = 0
KFLS 120050Z 15013G18KT 32/12 A3004 RMK A01 T03210117  RH  029%=      5-min Rain = 0
KFLS 120055Z 17013G18KT 32/12 A3004 RMK A01 T03180115  RH  029%=      5-min Rain = 0
KFLS 120100Z 16011KT 32/12 A3004 RMK A01 T03170116  RH  030%=      5-min Rain = 0
KFLS 120105Z 16011KT 32/12 A3004 RMK A01 T03150118  RH  031%=      5-min Rain = 0
KFLS 120110Z 16010KT 31/12 A3004 RMK A01 T03120119  RH  031%=      5-min Rain = 0
KFLS 120115Z 16011KT 31/12 A3004 RMK A01 T03090116  RH  031%=      5-min Rain = 0
KFLS 120120Z 16010KT 31/12 A3004 RMK A01 T03070118  RH  032%=      5-min Rain = 0
KFLS 120125Z 16009KT 31/12 A3004 RMK A01 T03050119  RH  033%=      5-min Rain = 0
KFLS 120130Z 16008KT 30/12 A3004 RMK A01 T03020119  RH  033%=      5-min Rain = 0
KFLS 120135Z 16008KT 30/12 A3004 RMK A01 T03000119  RH  033%=      5-min Rain = 0
KFLS 120140Z 16008KT 30/12 A3004 RMK A01 T02980120  RH  034%=      5-min Rain = 0
KFLS 120145Z 16008KT 30/12 A3004 RMK A01 T02950120  RH  035%=      5-min Rain = 0
KFLS 120150Z 16007KT 29/12 A3004 RMK A01 T02930120  RH  035%=      5-min Rain = 0
KFLS 120155Z 15007KT 29/12 A3005 RMK A01 T02910119  RH  035%=      5-min Rain = 0
KFLS 120200Z 15007KT 29/12 A3005 RMK A01 T02870119  RH  036%=      5-min Rain = 0
KFLS 120205Z 16006KT 28/12 A3005 RMK A01 T02840119  RH  036%=      5-min Rain = 0
KFLS 120210Z 16007KT 28/12 A3005 RMK A01 T02840118  RH  036%=      5-min Rain = 0
KFLS 120215Z 16007KT 28/12 A3005 RMK A01 T02820118  RH  037%=      5-min Rain = 0
KFLS 120220Z 15006KT 28/12 A3005 RMK A01 T02800118  RH  037%=      5-min Rain = 0
KFLS 120225Z 15006KT 28/12 A3005 RMK A01 T02770118  RH  038%=      5-min Rain = 0
KFLS 120230Z 15006KT 27/12 A3006 RMK A01 T02740119  RH  039%=      5-min Rain = 0
KFLS 120235Z 14006KT 27/12 A3006 RMK A01 T02700119  RH  040%=      5-min Rain = 0
KFLS 120240Z 15006KT 27/12 A3006 RMK A01 T02660120  RH  041%=      5-min Rain = 0
KFLS 120245Z 14006KT 27/12 A3007 RMK A01 T02650121  RH  042%=      5-min Rain = 0
KFLS 120250Z 14006KT 27/12 A3007 RMK A01 T02650121  RH  041%=      5-min Rain = 0
KFLS 120255Z 14006KT 26/12 A3007 RMK A01 T02640120  RH  041%=      5-min Rain = 0
KFLS 120300Z 14007KT 26/12 A3007 RMK A01 T02610120  RH  042%=      5-min Rain = 0
KFLS 120305Z 13007KT 26/12 A3007 RMK A01 T02610120  RH  042%=      5-min Rain = 0
KFLS 120310Z 13006KT 26/12 A3008 RMK A01 T02620122  RH  043%=      5-min Rain = 0
KFLS 120315Z 14006KT 26/13 A3008 RMK A01 T02630125  RH  043%=      5-min Rain = 0
KFLS 120320Z 14006KT 26/13 A3008 RMK A01 T02640126  RH  043%=      5-min Rain = 0
KFLS 120325Z 14006KT 27/13 A3008 RMK A01 T02650128  RH  043%=      5-min Rain = 0
KFLS 120330Z 14006KT 27/13 A3008 RMK A01 T02660130  RH  044%=      5-min Rain = 0
KFLS 120335Z 13006KT 27/13 A3009 RMK A01 T02670131  RH  044%=      5-min Rain = 0
KFLS 120340Z 13007KT 27/13 A3009 RMK A01 T02700131  RH  043%=      5-min Rain = 0
KFLS 120345Z 13007KT 27/13 A3009 RMK A01 T02720132  RH  043%=      5-min Rain = 0
KFLS 120350Z 13007KT 27/13 A3009 RMK A01 T02730132  RH  042%=      5-min Rain = 0
KFLS 120355Z 13007KT 27/13 A3009 RMK A01 T02730131  RH  042%=      5-min Rain = 0
KFLS 120400Z 13007KT 27/13 A3009 RMK A01 T02740132  RH  042%=      5-min Rain = 0
KFLS 120405Z 13007KT 27/13 A3009 RMK A01 T02740133  RH  043%=      5-min Rain = 0
KFLS 120410Z 14007KT 27/13 A3009 RMK A01 T02740133  RH  043%=      5-min Rain = 0
KFLS 120415Z 14007KT 27/13 A3009 RMK A01 T02730134  RH  043%=      5-min Rain = 0
KFLS 120420Z 14007KT 27/14 A3009 RMK A01 T02720135  RH  044%=      5-min Rain = 0
KFLS 120425Z 14007KT 27/14 A3009 RMK A01 T02710136  RH  044%=      5-min Rain = 0
KFLS 120430Z 14007KT 27/14 A301 RMK A01 T02710136  RH  044%=      5-min Rain = 0
KFLS 120435Z 14006KT 27/14 A301 RMK A01 T02710137  RH  045%=      5-min Rain = 0
KFLS 120440Z 14007KT 27/14 A301 RMK A01 T02710137  RH  045%=      5-min Rain = 0
KFLS 120445Z 14007KT 27/14 A3009 RMK A01 T02710137  RH  045%=      5-min Rain = 0
KFLS 120450Z 15007KT 27/14 A3009 RMK A01 T02710137  RH  045%=      5-min Rain = 0
KFLS 120455Z 15007KT 27/14 A301 RMK A01 T02730137  RH  044%=      5-min Rain = 0

Page generated in 0.0132 seconds.